createdAt,value
2022-10-14T00:00:44.115Z,15.73
2022-10-14T00:03:10.766Z,16.11
2022-10-14T00:05:40.842Z,16.06
2022-10-14T00:08:09.050Z,15.99
2022-10-14T00:10:39.608Z,15.74
2022-10-14T00:13:07.059Z,15.76
2022-10-14T00:15:39.474Z,15.56
2022-10-14T00:18:07.228Z,15.79
2022-10-14T00:20:34.598Z,15.71
2022-10-14T00:23:01.786Z,15.76
2022-10-14T00:25:29.300Z,15.81
2022-10-14T00:27:55.887Z,15.96
2022-10-14T00:30:22.970Z,15.25
2022-10-14T00:32:49.704Z,15.83
2022-10-14T00:35:16.454Z,15.70
2022-10-14T00:37:43.136Z,15.81
2022-10-14T00:40:10.524Z,15.81
2022-10-14T00:42:37.118Z,15.20
2022-10-14T00:45:14.053Z,14.83
2022-10-14T00:47:42.586Z,15.31
2022-10-14T00:50:10.339Z,15.54
2022-10-14T00:52:37.507Z,15.62
2022-10-14T00:55:10.425Z,15.83
2022-10-14T00:57:38.711Z,15.43
2022-10-14T01:00:09.691Z,15.56
2022-10-14T01:02:36.356Z,15.50
2022-10-14T01:05:06.618Z,15.10
2022-10-14T01:07:49.122Z,15.21
2022-10-14T01:10:19.067Z,15.31
2022-10-14T01:13:24.214Z,15.41
2022-10-14T01:16:09.511Z,15.63
2022-10-14T01:19:02.422Z,15.63
2022-10-14T01:21:36.237Z,16.20
2022-10-14T01:24:08.650Z,15.76
2022-10-14T01:26:53.971Z,15.53
2022-10-14T01:29:45.385Z,15.32
2022-10-14T01:32:21.376Z,15.19
2022-10-14T01:34:55.932Z,15.54
2022-10-14T01:37:28.253Z,15.50
2022-10-14T01:39:59.543Z,15.52
2022-10-14T01:42:31.120Z,15.59
2022-10-14T01:45:06.215Z,15.76
2022-10-14T01:47:36.035Z,15.74
2022-10-14T01:50:15.940Z,15.62
2022-10-14T01:52:54.728Z,15.87
2022-10-14T01:55:25.507Z,15.84
2022-10-14T01:57:55.998Z,15.46
2022-10-14T02:00:22.861Z,15.06
2022-10-14T02:02:49.527Z,15.14
2022-10-14T02:05:41.466Z,15.22
2022-10-14T02:08:17.256Z,14.92
2022-10-14T02:11:02.741Z,15.07
2022-10-14T02:13:51.900Z,14.49
2022-10-14T02:16:34.687Z,14.58
2022-10-14T02:19:28.324Z,14.81
2022-10-14T02:22:09.573Z,14.58
2022-10-14T02:24:41.190Z,15.00
2022-10-14T02:27:13.498Z,14.59
2022-10-14T02:29:43.828Z,14.74
2022-10-14T02:32:13.238Z,15.15
2022-10-14T02:34:41.149Z,15.42
2022-10-14T02:37:08.036Z,15.21
2022-10-14T02:39:39.652Z,15.18
2022-10-14T02:42:07.034Z,15.18
2022-10-14T02:44:33.647Z,14.82
2022-10-14T02:47:00.386Z,15.30
2022-10-14T02:49:27.026Z,14.77
2022-10-14T02:51:53.629Z,14.69
2022-10-14T02:54:20.444Z,14.87
2022-10-14T02:56:47.050Z,14.59
2022-10-14T02:59:13.685Z,15.03
2022-10-14T03:01:40.330Z,15.16
2022-10-14T03:04:07.116Z,15.29
2022-10-14T03:06:33.751Z,14.86
2022-10-14T03:09:00.339Z,14.83
2022-10-14T03:11:26.939Z,14.74
2022-10-14T03:13:53.510Z,15.09
2022-10-14T03:16:20.174Z,14.76
2022-10-14T03:18:46.681Z,15.11
2022-10-14T03:21:13.334Z,15.21
2022-10-14T03:23:39.931Z,14.90
2022-10-14T03:26:09.487Z,15.01
2022-10-14T03:28:38.509Z,14.88
2022-10-14T03:31:05.293Z,14.96
2022-10-14T03:33:33.690Z,15.17
2022-10-14T03:36:00.515Z,15.04
2022-10-14T03:38:27.486Z,14.86
2022-10-14T03:40:54.827Z,15.02
2022-10-14T03:43:21.476Z,14.27
2022-10-14T03:45:48.084Z,14.60
2022-10-14T03:48:14.706Z,14.80
2022-10-14T03:50:41.381Z,14.69
2022-10-14T03:53:08.041Z,14.81
2022-10-14T03:55:34.647Z,14.60
2022-10-14T03:58:01.667Z,14.61
2022-10-14T04:00:28.307Z,14.75
2022-10-14T04:02:54.917Z,15.23
2022-10-14T04:05:21.554Z,15.12
2022-10-14T04:07:48.222Z,15.19
2022-10-14T04:10:14.887Z,15.20
2022-10-14T04:12:41.471Z,15.14
2022-10-14T04:15:08.775Z,15.31
2022-10-14T04:17:35.676Z,14.61
2022-10-14T04:20:02.322Z,15.07
2022-10-14T04:22:30.027Z,14.36
2022-10-14T04:24:56.670Z,14.54
2022-10-14T04:27:23.260Z,14.91
2022-10-14T04:29:50.352Z,15.25
2022-10-14T04:32:17.205Z,14.78
2022-10-14T04:34:43.785Z,15.01
2022-10-14T04:37:10.417Z,14.93
2022-10-14T04:39:37.084Z,14.87
2022-10-14T04:42:04.201Z,14.28
2022-10-14T04:44:30.754Z,14.63
2022-10-14T04:46:57.398Z,14.57
2022-10-14T04:49:24.689Z,14.91
2022-10-14T04:51:51.523Z,15.09
2022-10-14T04:54:18.206Z,15.16
2022-10-14T04:56:45.001Z,14.91
2022-10-14T04:59:12.294Z,14.66
2022-10-14T05:01:39.049Z,15.09
2022-10-14T05:04:06.281Z,14.90
2022-10-14T05:06:43.939Z,14.97
2022-10-14T05:09:11.378Z,15.15
2022-10-14T05:11:38.339Z,15.00
2022-10-14T05:14:05.173Z,14.72
2022-10-14T05:16:32.620Z,15.19
2022-10-14T05:19:02.673Z,15.42
2022-10-14T05:21:29.983Z,14.79
2022-10-14T05:23:57.306Z,15.38
2022-10-14T05:26:24.586Z,15.06
2022-10-14T05:28:54.829Z,15.00
2022-10-14T05:31:21.920Z,14.79
2022-10-14T05:33:52.178Z,14.80
2022-10-14T05:36:19.435Z,15.30
2022-10-14T05:38:46.701Z,15.54
2022-10-14T05:41:14.032Z,15.18
2022-10-14T05:43:41.458Z,15.43
2022-10-14T05:46:08.728Z,15.08
2022-10-14T05:48:35.981Z,15.50
2022-10-14T05:51:04.766Z,15.01
2022-10-14T05:53:34.947Z,14.97
2022-10-14T05:56:07.825Z,14.82
2022-10-14T05:58:35.546Z,14.95
2022-10-14T06:01:04.838Z,14.82
2022-10-14T06:03:34.292Z,14.75
2022-10-14T06:06:01.712Z,15.02
2022-10-14T06:08:29.544Z,15.62
2022-10-14T06:10:59.608Z,15.51
2022-10-14T06:13:28.201Z,15.08
2022-10-14T06:15:54.999Z,15.00
2022-10-14T06:18:22.773Z,14.80
2022-10-14T06:20:54.413Z,15.16
2022-10-14T06:23:22.098Z,15.75
2022-10-14T06:25:49.442Z,15.23
2022-10-14T06:28:17.779Z,15.16
2022-10-14T06:30:55.383Z,15.16
2022-10-14T06:33:26.949Z,15.44
2022-10-14T06:35:54.296Z,15.29
2022-10-14T06:38:25.193Z,15.07
2022-10-14T06:40:53.688Z,15.63
2022-10-14T06:43:22.218Z,15.50
2022-10-14T06:45:50.371Z,15.31
2022-10-14T06:48:17.775Z,14.45
2022-10-14T06:50:50.677Z,14.88
2022-10-14T06:53:18.129Z,14.22
2022-10-14T06:55:45.872Z,14.74
2022-10-14T06:58:14.494Z,14.81
2022-10-14T07:00:47.202Z,14.57
2022-10-14T07:03:18.099Z,15.30
2022-10-14T07:05:46.730Z,15.67
2022-10-14T07:08:15.502Z,15.61
2022-10-14T07:10:43.497Z,15.37
2022-10-14T07:13:10.958Z,15.44
2022-10-14T07:15:39.548Z,15.45
2022-10-14T07:18:07.747Z,15.27
2022-10-14T07:20:35.607Z,15.83
2022-10-14T07:23:03.003Z,16.12
2022-10-14T07:25:30.387Z,16.13
2022-10-14T07:27:57.758Z,15.28
2022-10-14T07:30:25.304Z,15.99
2022-10-14T07:32:52.729Z,16.23
2022-10-14T07:35:20.183Z,15.96
2022-10-14T07:37:51.143Z,15.93
2022-10-14T07:40:18.517Z,15.29
2022-10-14T07:42:46.325Z,15.71
2022-10-14T07:45:19.340Z,15.30
2022-10-14T07:47:51.614Z,15.18
2022-10-14T07:50:20.715Z,15.28
2022-10-14T07:52:47.995Z,16.12
2022-10-14T07:55:19.414Z,15.37
2022-10-14T07:57:47.123Z,16.15
2022-10-14T08:00:15.851Z,15.98
2022-10-14T08:02:43.415Z,15.92
2022-10-14T08:05:36.381Z,15.70
2022-10-14T08:07:59.020Z,15.72
2022-10-14T08:10:26.671Z,15.11
2022-10-14T08:12:54.367Z,14.65
2022-10-14T08:15:25.303Z,15.07
2022-10-14T08:17:53.292Z,15.95
2022-10-14T08:20:22.953Z,16.21
2022-10-14T08:22:52.049Z,15.69
2022-10-14T08:25:20.007Z,16.45
2022-10-14T08:27:50.756Z,16.18
2022-10-14T08:30:21.719Z,15.85
2022-10-14T08:32:50.096Z,16.51
2022-10-14T08:35:19.644Z,16.49
2022-10-14T08:37:59.191Z,16.04
2022-10-14T08:40:31.018Z,15.91
2022-10-14T08:43:02.401Z,15.94
2022-10-14T08:45:39.381Z,16.72
2022-10-14T08:48:18.264Z,16.19
2022-10-14T08:50:52.712Z,16.27
2022-10-14T08:53:22.645Z,16.57
2022-10-14T08:55:58.033Z,16.37
2022-10-14T08:58:49.297Z,15.98
2022-10-14T09:01:31.366Z,16.12
2022-10-14T09:04:14.217Z,15.81
2022-10-14T09:06:47.141Z,15.97
2022-10-14T09:09:28.583Z,15.96
2022-10-14T09:12:11.820Z,15.63
2022-10-14T09:14:48.593Z,15.82
2022-10-14T09:17:24.910Z,15.47
2022-10-14T09:20:18.532Z,15.70
2022-10-14T09:23:05.637Z,15.92
2022-10-14T09:25:38.414Z,16.75
2022-10-14T09:28:07.527Z,16.76
2022-10-14T09:30:40.090Z,15.72
2022-10-14T09:33:14.972Z,16.41
2022-10-14T09:35:43.689Z,16.18
2022-10-14T09:38:15.085Z,16.05
2022-10-14T09:40:48.586Z,16.26
2022-10-14T09:43:20.569Z,16.44
2022-10-14T09:46:02.710Z,17.39
2022-10-14T09:48:52.773Z,17.47
2022-10-14T09:51:27.115Z,17.62
2022-10-14T09:53:58.164Z,17.33
2022-10-14T09:56:44.884Z,17.31
2022-10-14T10:02:16.008Z,16.87
2022-10-14T10:04:48.408Z,15.96
2022-10-14T10:10:23.034Z,17.28
2022-10-14T10:12:52.062Z,17.57
2022-10-14T10:15:23.078Z,17.49
2022-10-14T10:17:52.392Z,17.49
2022-10-14T10:20:24.825Z,17.34
2022-10-14T10:25:36.031Z,17.65
2022-10-14T10:28:16.723Z,17.02
2022-10-14T10:31:24.658Z,16.76
2022-10-14T10:34:32.092Z,17.49
2022-10-14T10:37:05.542Z,17.55
2022-10-14T10:39:47.202Z,16.75
2022-10-14T10:42:24.202Z,16.70
2022-10-14T10:45:00.410Z,16.47
2022-10-14T10:47:35.758Z,16.86
2022-10-14T10:50:36.134Z,17.04
2022-10-14T10:53:13.951Z,17.32
2022-10-14T10:56:06.346Z,17.36
2022-10-14T10:58:45.505Z,17.23
2022-10-14T11:01:38.099Z,17.62
2022-10-14T11:04:26.295Z,16.86
2022-10-14T11:07:28.079Z,17.36
2022-10-14T11:10:42.520Z,16.59
2022-10-14T11:13:36.942Z,16.84
2022-10-14T11:16:37.417Z,17.38
2022-10-14T11:19:15.955Z,16.85
2022-10-14T11:21:48.554Z,16.81
2022-10-14T11:24:21.032Z,16.62
2022-10-14T11:26:59.687Z,16.81
2022-10-14T11:29:29.300Z,16.69
2022-10-14T11:32:07.746Z,17.24
2022-10-14T11:35:00.298Z,16.66
2022-10-14T11:37:39.097Z,16.72
2022-10-14T11:40:27.014Z,17.40
2022-10-14T11:43:07.088Z,17.42
2022-10-14T11:46:01.114Z,17.59
2022-10-14T11:48:38.196Z,17.59
2022-10-14T11:51:14.040Z,16.70
2022-10-14T11:53:55.953Z,16.79
2022-10-14T11:56:39.688Z,17.54
2022-10-14T11:59:34.890Z,17.93
2022-10-14T12:02:14.089Z,18.06
2022-10-14T12:04:46.455Z,17.82
2022-10-14T12:07:18.855Z,17.13
2022-10-14T12:09:55.814Z,17.55
2022-10-14T12:12:28.618Z,17.98
2022-10-14T12:15:01.517Z,17.45
2022-10-14T12:17:53.687Z,16.58
2022-10-14T12:20:56.539Z,17.45
2022-10-14T12:23:34.134Z,17.67
2022-10-14T12:26:05.861Z,16.84
2022-10-14T12:28:34.785Z,17.58
2022-10-14T12:31:21.085Z,16.74
2022-10-14T12:34:15.398Z,17.71
2022-10-14T12:36:44.479Z,17.65
2022-10-14T12:39:17.047Z,17.31
2022-10-14T12:41:59.098Z,16.63
2022-10-14T12:44:56.394Z,17.06
2022-10-14T12:47:35.186Z,17.55
2022-10-14T12:50:06.514Z,17.37
2022-10-14T12:52:37.584Z,17.07
2022-10-14T12:55:18.927Z,17.82
2022-10-14T12:57:55.109Z,18.13
2022-10-14T13:00:21.600Z,18.36
2022-10-14T13:02:53.792Z,17.62
2022-10-14T13:05:29.749Z,18.08
2022-10-14T13:08:23.763Z,17.33
2022-10-14T13:11:34.455Z,18.19
2022-10-14T13:14:21.152Z,18.14
2022-10-14T13:16:53.703Z,17.73
2022-10-14T13:19:35.126Z,18.07
2022-10-14T13:22:23.856Z,18.25
2022-10-14T13:24:51.849Z,17.86
2022-10-14T13:27:33.587Z,17.23
2022-10-14T13:30:06.272Z,17.50
2022-10-14T13:36:05.705Z,17.67
2022-10-14T13:38:33.286Z,17.86
2022-10-14T13:41:01.979Z,17.55
2022-10-14T13:43:39.163Z,17.34
2022-10-14T13:46:12.222Z,17.58
2022-10-14T13:48:44.086Z,16.79
2022-10-14T13:51:31.858Z,16.86
2022-10-14T13:54:16.140Z,17.03
2022-10-14T13:56:43.315Z,17.16
2022-10-14T13:59:43.805Z,16.66
2022-10-14T14:02:18.838Z,17.80
2022-10-14T14:04:52.053Z,18.02
2022-10-14T14:10:19.546Z,17.64
2022-10-14T14:12:46.586Z,17.65
2022-10-14T14:15:24.271Z,17.89
2022-10-14T14:17:51.147Z,17.12
2022-10-14T14:20:25.335Z,17.97
2022-10-14T14:22:51.989Z,18.12
2022-10-14T14:25:38.411Z,18.02
2022-10-14T14:28:15.174Z,18.10
2022-10-14T14:30:55.169Z,18.03
2022-10-14T14:33:35.030Z,17.92
2022-10-14T14:36:14.638Z,17.93
2022-10-14T14:38:58.688Z,17.80
2022-10-14T14:41:27.895Z,17.77
2022-10-14T14:44:20.973Z,16.63
2022-10-14T14:46:48.394Z,17.41
2022-10-14T14:49:18.086Z,17.86
2022-10-14T14:51:45.825Z,17.65
2022-10-14T14:54:19.182Z,17.87
2022-10-14T14:57:04.660Z,17.64
2022-10-14T14:59:57.237Z,17.88
2022-10-14T15:02:25.698Z,16.75
2022-10-14T15:05:01.799Z,17.05
2022-10-14T15:07:28.958Z,17.38
2022-10-14T15:09:58.923Z,17.95
2022-10-14T15:12:34.181Z,17.62
2022-10-14T15:15:02.294Z,17.86
2022-10-14T15:17:29.290Z,18.06
2022-10-14T15:20:28.342Z,17.49
2022-10-14T15:22:54.992Z,17.44
2022-10-14T15:25:21.521Z,17.64
2022-10-14T15:28:28.352Z,17.75
2022-10-14T15:31:01.545Z,17.40
2022-10-14T15:33:31.480Z,17.09
2022-10-14T15:36:02.522Z,16.77
2022-10-14T15:38:32.828Z,17.16
2022-10-14T15:40:59.694Z,17.35
2022-10-14T15:43:27.554Z,17.21
2022-10-14T15:46:14.516Z,17.37
2022-10-14T15:48:47.781Z,17.10
2022-10-14T15:51:16.724Z,16.78
2022-10-14T15:53:43.563Z,16.84
2022-10-14T15:56:10.482Z,17.02
2022-10-14T15:58:37.101Z,17.32
2022-10-14T16:01:06.548Z,16.77
2022-10-14T16:03:37.360Z,16.83
2022-10-14T16:06:07.050Z,17.16
2022-10-14T16:08:34.083Z,16.99
2022-10-14T16:11:01.553Z,16.59
2022-10-14T16:13:28.178Z,16.60
2022-10-14T16:16:03.571Z,16.26
2022-10-14T16:18:30.197Z,16.82
2022-10-14T16:20:56.781Z,17.02
2022-10-14T16:23:29.664Z,17.08
2022-10-14T16:26:00.241Z,17.02
2022-10-14T16:28:26.878Z,16.68
2022-10-14T16:30:53.731Z,17.18
2022-10-14T16:33:24.587Z,16.69
2022-10-14T16:35:56.573Z,16.91
2022-10-14T16:38:24.300Z,16.97
2022-10-14T16:40:58.997Z,17.19
2022-10-14T16:43:26.125Z,17.25
2022-10-14T16:45:53.357Z,17.11
2022-10-14T16:48:19.998Z,17.33
2022-10-14T16:50:50.570Z,17.09
2022-10-14T16:53:36.030Z,17.27
2022-10-14T16:56:02.647Z,17.31
2022-10-14T16:58:29.325Z,17.01
2022-10-14T17:00:56.315Z,16.94
2022-10-14T17:03:22.919Z,17.11
2022-10-14T17:05:57.508Z,17.01
2022-10-14T17:08:24.095Z,17.13
2022-10-14T17:10:50.747Z,17.17
2022-10-14T17:13:17.480Z,17.27
2022-10-14T17:15:47.088Z,17.28
2022-10-14T17:18:17.794Z,17.20
2022-10-14T17:20:45.179Z,17.09
2022-10-14T17:23:11.779Z,17.01
2022-10-14T17:25:38.378Z,17.08
2022-10-14T17:28:04.972Z,16.92
2022-10-14T17:30:31.612Z,17.01
2022-10-14T17:32:58.185Z,17.02
2022-10-14T17:35:24.903Z,16.94
2022-10-14T17:37:51.575Z,16.86
2022-10-14T17:40:18.208Z,16.53
2022-10-14T17:42:44.800Z,16.37
2022-10-14T17:45:11.634Z,16.46
2022-10-14T17:47:38.224Z,16.36
2022-10-14T17:50:07.084Z,16.10
2022-10-14T17:52:33.641Z,15.54
2022-10-14T17:55:01.555Z,15.74
2022-10-14T17:57:28.400Z,15.86
2022-10-14T17:59:55.009Z,15.79
2022-10-14T18:02:22.150Z,15.74
2022-10-14T18:04:48.734Z,16.00
2022-10-14T18:07:16.142Z,16.23
2022-10-14T18:09:43.646Z,16.37
2022-10-14T18:12:10.649Z,16.30
2022-10-14T18:14:40.969Z,16.11
2022-10-14T18:17:10.753Z,16.02
2022-10-14T18:19:37.568Z,16.36
2022-10-14T18:22:04.206Z,16.36
2022-10-14T18:24:30.801Z,16.30
2022-10-14T18:26:57.352Z,16.32
2022-10-14T18:29:24.639Z,15.89
2022-10-14T18:34:18.954Z,15.95
2022-10-14T18:36:46.138Z,16.11
2022-10-14T18:39:12.789Z,16.07
2022-10-14T18:41:39.444Z,16.16
2022-10-14T18:44:06.488Z,16.11
2022-10-14T18:46:35.594Z,15.90
2022-10-14T18:49:03.631Z,15.51
2022-10-14T18:51:34.652Z,15.80
2022-10-14T18:54:05.260Z,15.61
2022-10-14T18:56:36.624Z,15.86
2022-10-14T18:59:09.158Z,15.77
2022-10-14T19:01:37.354Z,15.87
2022-10-14T19:04:06.149Z,15.70
2022-10-14T19:06:34.271Z,15.65
2022-10-14T19:09:01.886Z,15.47
2022-10-14T19:11:29.488Z,15.64
2022-10-14T19:13:57.616Z,15.62
2022-10-14T19:16:29.615Z,15.15
2022-10-14T19:19:01.853Z,14.82
2022-10-14T19:21:31.663Z,14.99
2022-10-14T19:23:59.421Z,14.59
2022-10-14T19:26:28.454Z,14.26
2022-10-14T19:28:57.278Z,14.10
2022-10-14T19:31:26.291Z,14.71
2022-10-14T19:33:54.173Z,14.69
2022-10-14T19:36:22.371Z,14.94
2022-10-14T19:38:52.314Z,15.03
2022-10-14T19:41:18.962Z,14.79
2022-10-14T19:43:45.616Z,14.74
2022-10-14T19:46:13.555Z,14.94
2022-10-14T19:48:40.637Z,14.92
2022-10-14T19:51:11.273Z,15.12
2022-10-14T19:53:38.941Z,14.71
2022-10-14T19:56:08.378Z,14.78
2022-10-14T19:58:36.203Z,14.53
2022-10-14T20:01:17.681Z,14.64
2022-10-14T20:03:44.526Z,14.96
2022-10-14T20:06:13.372Z,14.98
2022-10-14T20:08:40.669Z,14.80
2022-10-14T20:11:10.328Z,15.12
2022-10-14T20:13:37.741Z,14.97
2022-10-14T20:16:06.384Z,15.08
2022-10-14T20:18:33.401Z,14.79
2022-10-14T20:21:05.779Z,14.65
2022-10-14T20:23:38.146Z,14.71
2022-10-14T20:26:07.527Z,14.60
2022-10-14T20:28:39.092Z,14.49
2022-10-14T20:31:07.376Z,14.54
2022-10-14T20:33:34.305Z,14.25
2022-10-14T20:36:04.882Z,14.06
2022-10-14T20:38:31.664Z,13.89
2022-10-14T20:41:05.505Z,13.61
2022-10-14T20:43:32.197Z,13.51
2022-10-14T20:45:58.779Z,13.71
2022-10-14T20:48:25.441Z,14.18
2022-10-14T20:50:52.054Z,14.34
2022-10-14T20:53:18.689Z,14.44
2022-10-14T20:55:45.345Z,14.41
2022-10-14T20:58:11.905Z,14.44
2022-10-14T21:00:38.737Z,14.74
2022-10-14T21:03:05.457Z,14.77
2022-10-14T21:05:32.091Z,14.56
2022-10-14T21:07:58.682Z,14.61
2022-10-14T21:10:25.297Z,14.98
2022-10-14T21:12:51.957Z,15.21
2022-10-14T21:15:18.558Z,15.24
2022-10-14T21:17:49.503Z,15.32
2022-10-14T21:20:16.931Z,15.17
2022-10-14T21:22:43.570Z,15.05
2022-10-14T21:25:10.199Z,15.33
2022-10-14T21:27:36.742Z,15.33
2022-10-14T21:30:04.180Z,15.13
2022-10-14T21:32:30.773Z,14.95
2022-10-14T21:34:58.532Z,15.17
2022-10-14T21:37:25.170Z,14.93
2022-10-14T21:39:51.773Z,14.72
2022-10-14T21:42:18.482Z,14.60
2022-10-14T21:44:45.072Z,14.71
2022-10-14T21:47:11.757Z,14.61
2022-10-14T21:49:38.359Z,14.72
2022-10-14T21:52:05.038Z,14.90
2022-10-14T21:54:31.605Z,14.80
2022-10-14T21:56:58.222Z,14.87
2022-10-14T21:59:24.832Z,14.96
2022-10-14T22:01:51.431Z,15.03
2022-10-14T22:04:18.068Z,15.02
2022-10-14T22:06:44.687Z,15.00
2022-10-14T22:09:11.324Z,14.77
2022-10-14T22:11:40.604Z,14.71
2022-10-14T22:14:11.169Z,14.72
2022-10-14T22:16:37.987Z,14.70
2022-10-14T22:19:07.263Z,14.68
2022-10-14T22:21:36.559Z,14.45
2022-10-14T22:24:04.567Z,14.28
2022-10-14T22:26:32.171Z,14.35
2022-10-14T22:29:07.319Z,14.65
2022-10-14T22:31:34.823Z,14.73
2022-10-14T22:34:04.503Z,14.58
2022-10-14T22:36:32.248Z,14.44
2022-10-14T22:39:00.486Z,14.32
2022-10-14T22:41:32.347Z,14.26
2022-10-14T22:44:01.828Z,14.19
2022-10-14T22:46:31.499Z,14.18
2022-10-14T22:48:59.102Z,14.14
2022-10-14T22:51:37.287Z,13.92
2022-10-14T22:54:04.345Z,14.41
2022-10-14T22:56:31.454Z,14.54
2022-10-14T22:59:03.136Z,14.37
2022-10-14T23:01:30.182Z,14.47
2022-10-14T23:03:58.602Z,14.41
2022-10-14T23:06:26.019Z,14.63
2022-10-14T23:08:52.679Z,14.31
2022-10-14T23:11:21.225Z,14.22
2022-10-14T23:13:48.373Z,14.57
2022-10-14T23:16:18.198Z,14.60
2022-10-14T23:18:45.835Z,14.45
2022-10-14T23:21:26.157Z,14.49
2022-10-14T23:23:55.737Z,14.57
2022-10-14T23:26:27.152Z,14.46
2022-10-14T23:28:57.691Z,14.34
2022-10-14T23:31:27.052Z,14.45
2022-10-14T23:33:54.386Z,14.64
2022-10-14T23:36:22.523Z,14.38
2022-10-14T23:38:51.536Z,14.26
2022-10-14T23:41:19.165Z,14.38
2022-10-14T23:43:45.796Z,14.65
2022-10-14T23:46:12.452Z,14.64
2022-10-14T23:48:39.114Z,14.76
2022-10-14T23:51:06.581Z,14.18
2022-10-14T23:53:33.899Z,14.01
2022-10-14T23:56:01.165Z,14.31
2022-10-14T23:58:29.764Z,14.74
